Карточка аэропорта UASK

Внимание!
Информация на этой странице в стадии наполнения.
Если вы не увидели какой-то информации, или заметили неточность - пожалуйста сообщите нам!
Спасибо!
Команда RU-STAFF
Название аэропортаУсть-Каменогорск
Название аэропорта (англ.)Ust-Kamenogorsk
Превышение942 ft. (287.1 m.)
Координаты50°2.2020000000002', 82°29.598'
Высота перехода10000ft
Эшелон переходаFL120, QNH<733:FL130
Коды ответчика7250-7253, 0650-0657
Зона ОрВДАлматы РПИ (UAAA)
Данные METARUASK 190230Z 15003MPS 120V180 9999 BKN100 23/18 Q1002 NOSIG RMK QFE726/0969
Проноз погоды (TAF)UASK 190200Z 1903/1912 13004MPS 9999 SCT030CB BKN100 TEMPO 1903/1905 15004G09MPS 3100 -SHRA BR FEW007 BKN020CB TEMPO 1905/1911 VRB15MPS 3100 -TSRA SQ FEW004 BKN015CB
NOTAMshow/hide NOTAM
AWOS   TABLE

Информация о ВПП

ВПП Длина ВПП (м.) Покрытие Курс ВПП Частота ILS
302514Асфальтобетон304109.7
122514Асфальтобетон124111.7

Диспетчерские позиции

Позывной Наименование органа УВД Частота
UASK_TWRУсть-Каменогорск-Вышка130.1



Спутниковое изображение